Time;durP1;ratioP1;P1;durP2;ratioP2;P2;SDS_P1;SDS_P2;PMS_P1;PMS_P2;Temp;Humidity;BMP_temperature;BMP_pressure;BME280_temperature;BME280_humidity;BME280_pressure;Samples;Min_cycle;Max_cycle;Signal;HPM_P1;HPM_P2
2020/12/12 00:01:18;;;;;;;59.47;54.78;;;;;;;7.94;57.98;99091.34;4438022;32;34195;-83
2020/12/12 00:03:45;;;;;;;56.88;52.40;;;;;;;7.74;58.90;99088.47;4438114;32;33352;-84
2020/12/12 00:06:22;;;;;;;58.25;53.53;;;;;;;8.14;57.80;99088.13;4437568;32;33336;-83
2020/12/12 00:08:49;;;;;;;58.65;53.60;;;;;;;8.98;55.18;99093.22;4425274;32;33027;-84
2020/12/12 00:11:19;;;;;;;59.55;54.90;;;;;;;8.53;56.23;99094.72;4425233;32;33439;-83
2020/12/12 00:13:46;;;;;;;58.53;53.87;;;;;;;9.10;54.63;99084.16;4437971;32;34412;-83
2020/12/12 00:16:15;;;;;;;56.90;52.40;;;;;;;8.92;54.81;99091.69;4437842;32;34624;-84
2020/12/12 00:18:43;;;;;;;58.13;53.53;;;;;;;8.61;55.93;99084.06;4424965;32;32605;-84
2020/12/12 00:21:12;;;;;;;57.70;53.10;;;;;;;9.25;54.23;99085.34;4438041;32;33385;-83
2020/12/12 00:23:40;;;;;;;59.08;54.33;;;;;;;9.22;54.05;99081.09;4438151;32;33557;-84
2020/12/12 00:26:07;;;;;;;57.03;52.47;;;;;;;9.09;54.41;99075.47;4425272;32;33907;-82
2020/12/12 00:28:37;;;;;;;58.42;53.63;;;;;;;8.61;55.43;99071.94;4425622;32;34599;-82
2020/12/12 00:31:04;;;;;;;58.25;53.53;;;;;;;8.29;56.97;99072.97;4453550;32;33840;-83
2020/12/12 00:33:31;;;;;;;58.33;53.65;;;;;;;8.61;56.11;99074.53;4453795;32;33302;-83
2020/12/12 00:35:59;;;;;;;58.53;53.75;;;;;;;9.31;54.11;99066.94;4414918;32;33854;-83
2020/12/12 00:38:27;;;;;;;58.00;53.13;;;;;;;9.08;54.42;99065.16;4439639;32;32896;-82
2020/12/12 00:40:57;;;;;;;57.17;52.67;;;;;;;8.69;55.24;99069.94;4440130;32;34372;-83
2020/12/12 00:43:25;;;;;;;58.70;54.13;;;;;;;8.83;56.01;99061.66;4439990;32;33703;-83
2020/12/12 00:45:53;;;;;;;58.33;53.50;;;;;;;8.13;57.57;99070.03;4426966;32;33189;-83
2020/12/12 00:48:20;;;;;;;58.03;53.60;;;;;;;8.72;55.70;99063.78;4426956;32;33559;-84
2020/12/12 00:50:48;;;;;;;57.67;53.15;;;;;;;8.30;57.12;99065.13;4427064;32;32421;-84
2020/12/12 00:53:15;;;;;;;57.60;52.78;;;;;;;8.56;56.60;99063.44;4427598;32;34783;-83
2020/12/12 00:55:42;;;;;;;57.45;52.72;;;;;;;8.29;57.62;99054.81;4439568;32;34436;-84
2020/12/12 00:58:11;;;;;;;59.33;54.58;;;;;;;8.83;55.72;99060.84;4427117;32;32209;-84
2020/12/12 01:00:38;;;;;;;56.35;52.05;;;;;;;8.09;57.70;99058.88;4427292;32;33940;-84
2020/12/12 01:03:05;;;;;;;57.70;53.03;;;;;;;8.23;57.19;99050.66;4453814;32;33768;-83
2020/12/12 01:05:32;;;;;;;56.17;51.80;;;;;;;7.92;58.82;99051.62;4439769;32;33568;-83
2020/12/12 01:08:01;;;;;;;58.00;53.28;;;;;;;8.07;58.24;99057.22;4439601;32;33733;-83
2020/12/12 01:10:29;;;;;;;55.25;50.90;;;;;;;8.64;56.42;99051.06;4427427;32;33399;-83
2020/12/12 01:12:56;;;;;;;56.67;52.47;;;;;;;9.32;53.89;99045.22;4439617;32;33545;-83
2020/12/12 01:15:24;;;;;;;57.53;53.08;;;;;;;8.71;55.44;99049.13;4453834;32;33710;-84
2020/12/12 01:17:51;;;;;;;58.08;53.60;;;;;;;8.61;55.89;99051.16;4427075;32;32213;-84
2020/12/12 01:20:18;;;;;;;58.35;53.72;;;;;;;8.51;56.76;99045.44;4427137;32;34153;-83
2020/12/12 01:22:45;;;;;;;58.60;54.10;;;;;;;8.65;56.32;99049.31;4439924;32;33486;-83
2020/12/12 01:25:12;;;;;;;56.67;52.17;;;;;;;9.18;54.52;99032.75;4439705;32;34413;-83
2020/12/12 01:27:40;;;;;;;56.20;51.67;;;;;;;8.95;54.92;99039.63;4453754;32;34367;-84
2020/12/12 01:30:07;;;;;;;57.53;53.25;;;;;;;9.06;55.25;99038.38;4452486;32;33217;-83
2020/12/12 01:32:34;;;;;;;56.47;52.13;;;;;;;9.58;53.02;99043.41;4453690;32;34374;-84
2020/12/12 01:35:01;;;;;;;57.10;52.58;;;;;;;9.38;53.72;99036.38;4439542;32;33887;-83
2020/12/12 01:37:30;;;;;;;56.25;51.85;;;;;;;9.30;53.93;99032.28;4439853;32;34780;-83
2020/12/12 01:39:57;;;;;;;57.00;52.45;;;;;;;9.39;53.51;99033.69;4439702;32;33565;-84
2020/12/12 01:42:24;;;;;;;57.20;52.53;;;;;;;8.86;55.47;99034.75;4454755;32;34640;-83
2020/12/12 01:44:55;;;;;;;56.42;52.08;;;;;;;9.45;53.94;99037.81;4458442;32;34222;-83
2020/12/12 01:47:24;;;;;;;56.95;52.25;;;;;;;8.84;55.62;99031.34;4431765;32;34131;-83
2020/12/12 01:49:52;;;;;;;56.13;51.80;;;;;;;9.10;54.83;99030.41;4439322;32;33841;-84
2020/12/12 01:52:20;;;;;;;56.25;52.15;;;;;;;10.11;51.60;99031.81;4426887;32;34620;-84
2020/12/12 01:54:47;;;;;;;55.25;51.08;;;;;;;9.74;52.98;99022.84;4426526;32;32409;-85
2020/12/12 01:57:22;;;;;;;55.85;51.70;;;;;;;9.66;53.39;99026.59;4426572;32;33921;-84
2020/12/12 01:59:50;;;;;;;55.60;51.45;;;;;;;9.53;53.87;99026.22;4439313;32;33476;-84
2020/12/12 02:02:20;;;;;;;55.67;51.28;;;;;;;8.94;55.62;99032.72;4439253;32;33688;-84
2020/12/12 02:04:57;;;;;;;56.35;52.20;;;;;;;9.14;55.14;99029.38;4438932;32;33761;-84
2020/12/12 02:07:24;;;;;;;55.67;51.60;;;;;;;9.66;53.49;99026.59;4439059;32;34474;-83
2020/12/12 02:09:54;;;;;;;56.03;51.85;;;;;;;9.53;53.71;99025.37;4439641;32;33251;-83
2020/12/12 02:12:21;;;;;;;56.13;52.00;;;;;;;9.98;52.09;99029.69;4439527;32;34644;-84
2020/12/12 02:14:48;;;;;;;57.30;53.15;;;;;;;9.47;54.25;99025.63;4439478;32;34713;-84
2020/12/12 02:17:15;;;;;;;54.80;50.78;;;;;;;9.74;52.89;99030.66;4439244;32;32267;-84
2020/12/12 02:19:42;;;;;;;55.58;51.60;;;;;;;8.72;55.50;99036.97;4453486;32;33965;-83
2020/12/12 02:22:09;;;;;;;54.53;50.83;;;;;;;9.03;54.82;99026.34;4453412;32;33799;-83
2020/12/12 02:24:37;;;;;;;54.72;50.67;;;;;;;9.42;53.62;99022.34;4439587;32;33730;-84
2020/12/12 02:27:06;;;;;;;54.72;50.53;;;;;;;9.36;54.06;99023.44;4439263;32;33635;-84
2020/12/12 02:29:47;;;;;;;54.13;50.17;;;;;;;9.02;54.44;99020.28;4426308;32;31992;-84
2020/12/12 02:32:14;;;;;;;52.72;49.33;;;;;;;9.28;54.13;99012.44;4428253;32;33638;-82
2020/12/12 02:34:43;;;;;;;53.20;49.63;;;;;;;8.55;55.83;99011.56;4439786;32;33350;-84
2020/12/12 02:37:10;;;;;;;54.33;50.60;;;;;;;9.96;52.18;99018.50;4426392;32;33734;-84
2020/12/12 02:39:38;;;;;;;54.33;50.25;;;;;;;8.64;55.96;99008.66;4426531;32;33325;-82
2020/12/12 02:42:05;;;;;;;53.60;49.97;;;;;;;8.64;56.26;99008.66;4439193;32;33057;-84
2020/12/12 02:44:32;;;;;;;52.92;49.40;;;;;;;9.30;54.24;99003.69;4439267;32;34842;-84
2020/12/12 02:46:59;;;;;;;52.97;49.22;;;;;;;9.42;54.16;99006.75;4439157;32;33383;-84
2020/12/12 02:49:26;;;;;;;53.00;49.40;;;;;;;9.68;53.39;99003.97;4426507;32;32852;-83
2020/12/12 02:51:53;;;;;;;53.40;49.80;;;;;;;8.84;55.28;99005.34;4426572;32;33501;-83
2020/12/12 02:54:20;;;;;;;53.55;49.92;;;;;;;9.42;53.92;99002.37;4438426;32;33917;-82
2020/12/12 02:56:48;;;;;;;54.33;50.53;;;;;;;9.93;52.31;99010.81;4415729;32;33000;-83
2020/12/12 02:59:15;;;;;;;53.15;49.55;;;;;;;9.58;53.79;99004.41;4427750;32;33430;-84
2020/12/12 03:01:42;;;;;;;53.25;49.45;;;;;;;9.31;54.38;99000.19;4443334;32;33536;-83
2020/12/12 03:04:10;;;;;;;53.78;50.05;;;;;;;9.76;53.35;99005.41;4453035;32;33921;-83
2020/12/12 03:06:38;;;;;;;54.95;50.95;;;;;;;9.21;54.94;99009.22;4438850;32;34529;-84
2020/12/12 03:09:05;;;;;;;53.08;49.38;;;;;;;9.08;55.00;99003.66;4438892;32;33108;-83
2020/12/12 03:11:33;;;;;;;54.03;50.22;;;;;;;10.31;51.60;99012.78;4425826;32;32279;-82
2020/12/12 03:14:00;;;;;;;54.42;50.65;;;;;;;10.82;50.16;99005.41;4438993;32;34024;-83
2020/12/12 03:16:27;;;;;;;53.75;49.95;;;;;;;10.29;51.69;99007.63;4438894;32;33802;-84
2020/12/12 03:18:54;;;;;;;54.53;50.72;;;;;;;9.37;54.44;99006.91;4439267;32;33356;-84
2020/12/12 03:21:21;;;;;;;55.17;51.08;;;;;;;9.81;53.35;98999.16;4438567;32;34719;-83
2020/12/12 03:23:48;;;;;;;53.75;49.97;;;;;;;10.44;51.42;99002.72;4438871;32;33784;-84
2020/12/12 03:26:15;;;;;;;55.03;51.22;;;;;;;9.60;53.98;99006.03;4454194;32;33767;-84
2020/12/12 03:28:42;;;;;;;53.38;49.53;;;;;;;9.17;55.23;99005.91;4453260;32;34479;-83
2020/12/12 03:31:10;;;;;;;54.80;50.92;;;;;;;9.40;54.80;99003.34;4438841;32;33841;-83
2020/12/12 03:33:37;;;;;;;55.03;51.22;;;;;;;10.31;52.19;98997.97;4425524;32;32422;-82
2020/12/12 03:36:04;;;;;;;54.15;50.35;;;;;;;9.02;55.65;99001.25;4452543;32;33406;-83
2020/12/12 03:38:31;;;;;;;54.78;51.05;;;;;;;9.54;54.55;98995.84;4425634;32;32607;-84
2020/12/12 03:40:58;;;;;;;54.67;50.88;;;;;;;10.49;51.84;98996.41;4425565;32;32712;-84
2020/12/12 03:43:26;;;;;;;55.45;51.42;;;;;;;10.35;52.22;98993.53;4438397;32;33723;-83
2020/12/12 03:45:54;;;;;;;55.20;51.30;;;;;;;9.98;52.90;98990.62;4425589;32;32327;-84
2020/12/12 03:48:21;;;;;;;54.28;50.63;;;;;;;9.50;54.82;98986.47;4438278;32;33235;-84
2020/12/12 03:50:48;;;;;;;53.72;50.00;;;;;;;8.87;56.18;98987.09;4438322;32;33749;-84
2020/12/12 03:53:15;;;;;;;53.60;50.00;;;;;;;9.26;55.47;98985.66;4452482;32;34475;-84
2020/12/12 03:55:43;;;;;;;52.83;49.20;;;;;;;9.39;55.21;98981.69;4438006;32;33296;-84
2020/12/12 03:58:10;;;;;;;53.80;50.17;;;;;;;9.81;53.93;98988.75;4438118;32;32996;-85
2020/12/12 04:00:38;;;;;;;55.17;51.30;;;;;;;10.35;51.89;98986.56;4438309;32;34549;-84
2020/12/12 04:03:05;;;;;;;54.33;50.40;;;;;;;9.73;53.97;98989.94;4438250;32;34041;-83
2020/12/12 04:05:32;;;;;;;53.85;50.17;;;;;;;9.47;54.56;98990.03;4425764;32;33305;-84
2020/12/12 04:08:00;;;;;;;55.63;51.65;;;;;;;9.14;55.67;98987.81;4440624;32;33583;-84
2020/12/12 04:10:27;;;;;;;53.10;49.47;;;;;;;9.56;54.60;98977.59;4440204;32;33868;-84
2020/12/12 04:12:54;;;;;;;53.87;49.95;;;;;;;9.67;54.50;98986.66;4442073;32;34036;-85
2020/12/12 04:15:21;;;;;;;52.83;49.33;;;;;;;10.41;52.06;98984.59;4455931;32;34597;-82
2020/12/12 04:17:48;;;;;;;52.90;49.33;;;;;;;9.68;54.11;98993.56;4456052;32;33645;-84
2020/12/12 04:20:15;;;;;;;54.33;50.67;;;;;;;10.26;52.34;98993.88;4440037;32;34546;-84
2020/12/12 04:22:42;;;;;;;53.03;49.53;;;;;;;10.93;50.60;98994.53;4440197;32;33899;-84
2020/12/12 04:25:10;;;;;;;53.25;49.75;;;;;;;10.14;52.38;98997.84;4426884;32;32304;-84
2020/12/12 04:27:36;;;;;;;53.45;49.78;;;;;;;10.45;51.77;98999.19;4427224;32;33277;-84
2020/12/12 04:30:04;;;;;;;53.83;50.22;;;;;;;10.63;51.33;98992.34;4439898;32;34306;-83
2020/12/12 04:32:31;;;;;;;53.58;50.08;;;;;;;10.32;52.14;98989.25;4414354;32;32500;-83
2020/12/12 04:34:58;;;;;;;53.22;49.72;;;;;;;9.84;53.70;98998.19;4440058;32;34162;-83
2020/12/12 04:37:41;;;;;;;53.90;50.20;;;;;;;10.41;52.59;98993.28;4500590;31;365789;-86
2020/12/12 04:40:10;;;;;;;54.03;50.42;;;;;;;10.41;52.59;98993.28;4494860;32;32406;-83
2020/12/12 04:42:42;;;;;;;53.30;49.80;;;;;;;10.00;53.80;98991.44;4495195;31;33099;-83
2020/12/12 04:45:10;;;;;;;54.05;50.33;;;;;;;10.45;51.89;98989.63;4494992;31;33826;-84
2020/12/12 04:47:43;;;;;;;53.25;49.45;;;;;;;10.08;53.56;98978.13;4494904;31;32620;-83
2020/12/12 04:50:11;;;;;;;52.80;49.38;;;;;;;10.60;51.92;98982.09;4481916;32;34025;-84
2020/12/12 04:52:42;;;;;;;54.95;51.28;;;;;;;10.26;52.80;98986.91;4494995;31;33850;-83
2020/12/12 04:55:10;;;;;;;53.80;50.10;;;;;;;10.45;52.16;98988.78;4494945;32;33225;-83
2020/12/12 04:57:39;;;;;;;54.45;50.83;;;;;;;10.56;52.02;98981.34;4494958;32;33360;-84
2020/12/12 05:00:12;;;;;;;54.40;50.63;;;;;;;9.56;54.91;98980.19;4494925;31;33552;-83
2020/12/12 05:02:39;;;;;;;56.40;52.30;;;;;;;9.36;55.44;98982.66;4496102;31;33842;-83
2020/12/12 05:05:08;;;;;;;55.47;51.55;;;;;;;9.53;55.39;98981.16;4494804;32;34300;-84
2020/12/12 05:07:35;;;;;;;55.17;51.05;;;;;;;10.06;53.80;98984.28;4495009;31;33658;-83
2020/12/12 05:10:03;;;;;;;53.97;50.28;;;;;;;9.31;55.89;98979.37;4468815;31;33975;-82
2020/12/12 05:12:33;;;;;;;54.40;50.78;;;;;;;9.30;55.61;98984.66;4481596;32;33276;-83
2020/12/12 05:15:00;;;;;;;53.10;49.55;;;;;;;8.99;56.65;98978.84;4494490;31;34252;-82
2020/12/12 05:17:28;;;;;;;53.90;50.10;;;;;;;9.11;56.37;98977.53;4495908;32;33766;-83
2020/12/12 05:19:58;;;;;;;53.83;50.10;;;;;;;9.35;55.59;98980.13;4496201;32;34249;-82
2020/12/12 05:22:25;;;;;;;53.45;49.70;;;;;;;9.68;54.36;98977.97;4482247;32;33313;-83
2020/12/12 05:24:53;;;;;;;53.63;49.72;;;;;;;9.69;54.32;98984.88;4495273;32;34544;-83
2020/12/12 05:27:20;;;;;;;53.55;49.92;;;;;;;9.90;53.75;98982.31;4495370;31;33576;-85
2020/12/12 05:29:48;;;;;;;53.97;50.28;;;;;;;9.19;55.68;98979.84;4496155;32;34369;-84
2020/12/12 05:32:15;;;;;;;53.92;50.42;;;;;;;9.58;54.42;98981.81;4499308;31;33593;-84
2020/12/12 05:34:43;;;;;;;53.30;49.47;;;;;;;8.59;57.38;98982.88;4482401;32;33792;-85
2020/12/12 05:37:11;;;;;;;53.10;49.60;;;;;;;9.02;55.80;98983.06;4481208;31;33587;-85
2020/12/12 05:39:38;;;;;;;54.58;50.65;;;;;;;9.15;55.55;98981.72;4495870;31;33633;-84
2020/12/12 05:42:07;;;;;;;53.67;50.17;;;;;;;9.49;54.56;98988.25;4495618;32;34320;-84
2020/12/12 05:44:34;;;;;;;54.22;50.58;;;;;;;9.82;53.33;98985.22;4496324;32;34780;-83
2020/12/12 05:47:02;;;;;;;53.75;50.15;;;;;;;9.50;54.06;98981.28;4492425;32;33387;-83
2020/12/12 05:49:33;;;;;;;54.17;50.42;;;;;;;9.57;53.96;98979.28;4485222;32;33046;-84
2020/12/12 05:52:03;;;;;;;53.10;49.47;;;;;;;9.47;54.31;98981.41;4471113;32;33644;-84
2020/12/12 05:54:30;;;;;;;53.40;49.63;;;;;;;9.07;55.36;98977.69;4470643;32;33218;-83
2020/12/12 05:56:59;;;;;;;54.38;50.35;;;;;;;9.42;54.76;98983.34;4470934;32;32195;-83
2020/12/12 05:59:26;;;;;;;55.12;51.20;;;;;;;8.69;56.59;98984.25;4484078;32;33182;-83
2020/12/12 06:01:58;;;;;;;53.47;49.80;;;;;;;8.91;56.56;98986.06;4484264;32;34519;-83
2020/12/12 06:04:30;;;;;;;55.92;51.78;;;;;;;8.71;56.82;98988.50;4471727;32;32976;-83
2020/12/12 06:06:57;;;;;;;53.75;50.15;;;;;;;8.40;57.42;98994.75;4470830;32;34523;-83
2020/12/12 06:09:35;;;;;;;54.58;50.72;;;;;;;9.35;54.81;98987.94;4483682;32;33363;-83
2020/12/12 06:12:04;;;;;;;52.80;49.22;;;;;;;8.87;55.70;98989.69;4483790;32;34075;-82
2020/12/12 06:14:36;;;;;;;52.85;49.25;;;;;;;9.08;54.73;98982.88;4483816;32;33563;-83
2020/12/12 06:17:07;;;;;;;54.10;50.33;;;;;;;8.50;56.84;98980.59;4483801;32;33407;-83
2020/12/12 06:19:38;;;;;;;54.10;50.17;;;;;;;8.56;56.77;98975.16;4483937;32;33391;-84
2020/12/12 06:22:05;;;;;;;53.33;49.63;;;;;;;8.74;56.33;98975.44;4483886;32;33443;-83
2020/12/12 06:24:33;;;;;;;53.13;49.53;;;;;;;8.81;55.69;98977.75;4484023;32;34991;-83
2020/12/12 06:27:08;;;;;;;54.72;50.83;;;;;;;8.46;56.95;98968.62;4483789;32;33541;-83
2020/12/12 06:29:41;;;;;;;54.42;50.63;;;;;;;8.14;57.55;98967.94;4471034;32;32530;-83
2020/12/12 06:32:17;;;;;;;53.78;50.12;;;;;;;8.40;56.72;98964.44;4484950;32;34823;-83
2020/12/12 06:34:47;;;;;;;54.10;50.55;;;;;;;8.33;56.86;98974.19;4471251;32;33549;-83
2020/12/12 06:37:32;;;;;;;53.53;49.95;;;;;;;7.87;58.00;98983.50;4470498;32;34522;-83
2020/12/12 06:40:02;;;;;;;54.92;51.40;;;;;;;8.71;55.56;98984.19;4486518;32;33583;-82
2020/12/12 06:42:32;;;;;;;53.80;50.12;;;;;;;8.40;56.62;98984.38;4485567;32;33657;-83
2020/12/12 06:45:04;;;;;;;55.10;51.50;;;;;;;8.83;54.64;98988.09;4485015;32;32532;-84
2020/12/12 06:47:37;;;;;;;53.83;50.03;;;;;;;9.03;54.10;98989.97;4470314;32;33671;-84
2020/12/12 06:50:08;;;;;;;53.20;49.78;;;;;;;7.95;57.50;98999.66;4483030;32;33908;-83
2020/12/12 06:52:36;;;;;;;53.97;50.35;;;;;;;8.08;57.59;98999.25;4470108;32;33672;-84
2020/12/12 06:55:05;;;;;;;54.05;50.40;;;;;;;7.30;59.36;99001.63;4469929;32;33802;-84
2020/12/12 06:57:38;;;;;;;52.70;49.05;;;;;;;7.83;58.20;99000.03;4482936;32;33859;-83
2020/12/12 07:00:30;;;;;;;53.08;49.53;;;;;;;7.76;58.09;98998.53;4469457;32;32050;-83
2020/12/12 07:03:01;;;;;;;54.53;50.63;;;;;;;7.09;60.38;99008.28;4470344;32;32221;-84
2020/12/12 07:05:32;;;;;;;53.53;49.93;;;;;;;7.81;58.38;99014.81;4484608;32;34059;-83
2020/12/12 07:08:07;;;;;;;53.70;50.20;;;;;;;6.95;60.38;99010.41;4457394;32;33293;-83
2020/12/12 07:10:37;;;;;;;53.50;49.90;;;;;;;7.42;58.94;99017.69;4483040;32;33428;-85
2020/12/12 07:13:05;;;;;;;52.80;49.40;;;;;;;7.15;59.97;99015.91;4483028;32;34681;-84
2020/12/12 07:15:35;;;;;;;53.25;49.63;;;;;;;8.60;55.30;99007.94;4484834;32;34004;-83
2020/12/12 07:18:07;;;;;;;53.55;49.95;;;;;;;7.84;56.87;99009.53;4484351;32;33585;-83
2020/12/12 07:20:45;;;;;;;53.38;49.78;;;;;;;7.98;56.80;99009.94;4484767;32;33564;-83
2020/12/12 07:23:12;;;;;;;52.67;49.40;;;;;;;7.48;58.04;99015.78;4484654;32;34739;-84
2020/12/12 07:25:39;;;;;;;52.05;48.72;;;;;;;7.14;58.82;99021.09;4484646;32;33622;-83
2020/12/12 07:28:06;;;;;;;53.55;49.97;;;;;;;7.84;56.94;99027.66;4470406;32;33336;-84
2020/12/12 07:30:33;;;;;;;52.25;48.95;;;;;;;8.23;55.95;99026.44;4457966;32;32772;-84
2020/12/12 07:33:01;;;;;;;53.45;50.08;;;;;;;8.07;56.63;99034.75;4483981;32;33529;-84
2020/12/12 07:35:32;;;;;;;52.62;49.25;;;;;;;8.89;54.10;99029.44;4483232;32;34112;-84
2020/12/12 07:38:03;;;;;;;53.17;49.67;;;;;;;8.76;54.45;99028.16;4482949;32;32512;-84
2020/12/12 07:40:32;;;;;;;52.25;49.03;;;;;;;9.11;53.67;99026.91;4483890;32;33275;-84
2020/12/12 07:43:02;;;;;;;54.33;50.53;;;;;;;8.37;55.94;99026.84;4470706;32;33339;-84
2020/12/12 07:48:06;;;;;;;55.22;51.25;;;;;;;8.86;55.12;99021.75;4485774;32;33632;-84
2020/12/12 07:50:34;;;;;;;53.08;49.60;;;;;;;8.64;55.06;99026.84;4488091;32;34498;-83
2020/12/12 07:53:12;;;;;;;52.67;49.35;;;;;;;8.26;56.84;99028.97;4487918;32;33998;-84
2020/12/12 07:55:45;;;;;;;54.50;50.75;;;;;;;8.46;55.25;99023.97;4483016;32;33738;-85
2020/12/12 07:58:22;;;;;;;53.95;50.30;;;;;;;7.91;56.79;99031.78;4470106;32;34601;-84
2020/12/12 08:00:59;;;;;;;53.78;50.17;;;;;;;7.81;57.92;99022.59;4469499;32;33693;-83
2020/12/12 08:03:27;;;;;;;53.58;50.08;;;;;;;7.67;58.23;99030.78;4482395;32;33774;-83
2020/12/12 08:06:03;;;;;;;54.30;50.60;;;;;;;8.74;55.46;99024.78;4484071;32;33883;-84
2020/12/12 08:08:31;;;;;;;56.47;52.35;;;;;;;8.69;55.63;99033.59;4483707;32;33330;-83
2020/12/12 08:11:02;;;;;;;54.75;50.90;;;;;;;7.81;58.15;99023.44;4483271;32;33109;-84
2020/12/12 08:13:30;;;;;;;55.50;51.53;;;;;;;8.03;57.88;99023.59;4469459;32;33602;-84
2020/12/12 08:16:12;;;;;;;54.65;50.83;;;;;;;7.70;58.69;99025.53;4482531;32;34072;-84
2020/12/12 08:18:39;;;;;;;54.33;50.42;;;;;;;7.99;57.85;99032.37;4470519;32;33515;-83
2020/12/12 08:21:15;;;;;;;54.47;50.67;;;;;;;8.03;57.57;99028.78;4457085;32;32569;-84
2020/12/12 08:23:43;;;;;;;55.50;51.70;;;;;;;9.17;54.16;99018.91;4470004;32;33701;-84
2020/12/12 08:26:12;;;;;;;55.08;51.25;;;;;;;8.34;56.71;99039.94;4469516;32;33819;-83
2020/12/12 08:28:40;;;;;;;53.65;49.95;;;;;;;9.35;53.56;99027.75;4483832;32;33699;-84
2020/12/12 08:31:14;;;;;;;54.72;50.97;;;;;;;9.06;54.06;99036.62;4469217;32;32042;-83
2020/12/12 08:33:42;;;;;;;54.55;50.63;;;;;;;8.93;54.09;99033.59;4482343;32;32618;-84
2020/12/12 08:36:14;;;;;;;54.22;50.35;;;;;;;7.46;59.17;99047.81;4483485;32;34170;-84
2020/12/12 08:38:50;;;;;;;53.65;49.83;;;;;;;8.27;56.29;99049.66;4469839;32;31631;-84
2020/12/12 08:41:19;;;;;;;54.10;50.40;;;;;;;7.86;57.26;99051.84;4483952;32;33389;-85
2020/12/12 08:43:47;;;;;;;53.67;49.88;;;;;;;7.62;58.33;99051.69;4483720;32;34347;-84
2020/12/12 08:46:16;;;;;;;53.33;49.72;;;;;;;7.53;58.93;99057.97;4469431;32;34948;-83
2020/12/12 08:48:43;;;;;;;54.03;50.20;;;;;;;8.36;55.91;99057.16;4482328;32;33657;-84
2020/12/12 08:51:12;;;;;;;57.20;53.17;;;;;;;8.91;54.81;99061.41;4482626;32;33217;-83
2020/12/12 08:53:46;;;;;;;55.42;51.28;;;;;;;9.27;53.85;99061.00;4482669;32;33641;-83
2020/12/12 08:56:15;;;;;;;54.00;50.28;;;;;;;8.60;55.70;99061.59;4483576;32;34023;-83
2020/12/12 08:58:51;;;;;;;56.42;52.42;;;;;;;8.61;55.91;99064.16;4486088;32;34432;-83
2020/12/12 09:01:24;;;;;;;55.53;51.53;;;;;;;7.73;58.66;99060.88;4473431;32;33442;-84
2020/12/12 09:04:00;;;;;;;54.72;50.88;;;;;;;7.89;57.85;99064.69;4469280;32;33847;-84
2020/12/12 09:06:35;;;;;;;54.15;50.45;;;;;;;8.19;56.94;99060.28;4483718;32;33080;-84
2020/12/12 09:09:06;;;;;;;55.75;51.85;;;;;;;7.32;60.07;99062.03;4481772;32;33373;-84
2020/12/12 09:11:33;;;;;;;55.17;51.47;;;;;;;7.96;57.99;99054.97;4481984;32;33333;-84
2020/12/12 09:14:01;;;;;;;54.47;50.60;;;;;;;8.11;57.37;99044.12;4481668;32;33101;-84
2020/12/12 09:16:30;;;;;;;56.22;52.28;;;;;;;8.74;55.19;99050.75;4468574;32;33460;-85
2020/12/12 09:18:58;;;;;;;54.40;50.55;;;;;;;8.05;57.68;99051.25;4468827;32;33794;-83
2020/12/12 09:21:25;;;;;;;54.70;50.78;;;;;;;9.54;52.92;99042.66;4483006;32;34177;-84
2020/12/12 09:23:52;;;;;;;55.83;51.90;;;;;;;9.22;53.63;99047.31;4470364;32;33917;-84
2020/12/12 09:26:20;;;;;;;54.78;50.95;;;;;;;9.16;53.85;99045.78;4470891;32;33864;-84
2020/12/12 09:28:47;;;;;;;54.80;50.80;;;;;;;9.37;53.06;99051.09;4470870;32;33707;-83
2020/12/12 09:31:18;;;;;;;55.35;51.35;;;;;;;8.69;55.46;99059.56;4483682;32;34265;-84
2020/12/12 09:33:45;;;;;;;55.15;51.15;;;;;;;8.56;55.66;99053.06;4483812;32;34817;-84
2020/12/12 09:36:13;;;;;;;54.85;50.85;;;;;;;9.37;53.62;99051.09;4464184;32;32986;-83
2020/12/12 09:38:43;;;;;;;55.45;51.65;;;;;;;9.80;52.34;99039.06;4484032;32;34547;-84
2020/12/12 09:41:10;;;;;;;53.50;49.70;;;;;;;10.20;50.81;99034.03;4483864;32;34351;-84
2020/12/12 09:43:38;;;;;;;55.58;51.80;;;;;;;10.53;50.33;99031.00;4470708;32;34751;-84
2020/12/12 09:46:06;;;;;;;54.70;50.97;;;;;;;10.56;50.17;99023.03;4470894;32;33899;-84
2020/12/12 09:48:35;;;;;;;54.65;51.05;;;;;;;11.25;48.15;99024.38;4471020;32;33547;-84
2020/12/12 09:51:03;;;;;;;55.03;51.28;;;;;;;11.01;48.72;99027.16;4485232;32;33021;-83
2020/12/12 09:53:31;;;;;;;54.72;50.97;;;;;;;11.11;48.38;99018.94;4471097;32;34364;-85
2020/12/12 09:55:58;;;;;;;55.03;51.28;;;;;;;10.98;48.80;99016.03;4485383;32;33995;-85
2020/12/12 09:58:25;;;;;;;55.92;52.08;;;;;;;10.95;48.70;99019.59;4470750;32;33531;-83
2020/12/12 10:00:53;;;;;;;55.33;51.42;;;;;;;10.57;50.23;99014.31;4484336;32;34228;-83
2020/12/12 10:03:20;;;;;;;54.53;50.67;;;;;;;9.48;53.11;99014.28;4484181;32;34512;-84
2020/12/12 10:05:47;;;;;;;54.45;50.88;;;;;;;10.20;51.43;99011.44;4485225;32;33903;-84
2020/12/12 10:08:16;;;;;;;56.25;52.35;;;;;;;10.21;51.58;99001.91;4484265;32;34726;-84
2020/12/12 10:10:43;;;;;;;53.00;49.50;;;;;;;10.77;50.11;99009.97;4479580;32;33267;-84
2020/12/12 10:13:11;;;;;;;54.85;51.35;;;;;;;11.70;47.56;99011.91;4480618;32;32946;-83
2020/12/12 10:15:38;;;;;;;54.25;50.55;;;;;;;11.50;47.64;99008.47;4481127;32;34035;-84
2020/12/12 10:18:08;;;;;;;54.58;50.90;;;;;;;11.65;47.25;98998.22;4472813;32;33637;-84
2020/12/12 10:20:37;;;;;;;53.97;50.17;;;;;;;11.79;46.89;98997.56;4468864;32;33247;-84
2020/12/12 10:23:05;;;;;;;54.83;51.33;;;;;;;11.41;48.00;98997.59;4467856;32;34678;-84
2020/12/12 10:25:32;;;;;;;54.47;50.80;;;;;;;11.08;48.25;99009.50;4455020;32;33054;-85
2020/12/12 10:28:08;;;;;;;53.63;50.03;;;;;;;10.40;50.63;99007.22;4467110;32;33335;-84
2020/12/12 10:30:36;;;;;;;55.25;51.20;;;;;;;10.11;51.11;99008.38;4454559;32;32618;-84
2020/12/12 10:33:11;;;;;;;54.80;51.03;;;;;;;10.11;51.73;99005.78;4468546;32;34293;-84
2020/12/12 10:35:38;;;;;;;55.63;51.70;;;;;;;10.36;51.21;99009.09;4462924;32;34262;-84
2020/12/12 10:38:06;;;;;;;55.63;52.05;;;;;;;9.93;52.16;99008.22;4439197;32;33652;-84
2020/12/12 10:40:36;;;;;;;54.22;50.63;;;;;;;10.15;51.67;99013.38;4467398;32;34222;-83
2020/12/12 10:43:05;;;;;;;54.15;50.42;;;;;;;9.13;54.41;99006.91;4467457;32;33893;-84
2020/12/12 10:45:32;;;;;;;54.42;50.72;;;;;;;9.52;53.34;99008.09;4454916;32;33512;-83
2020/12/12 10:47:59;;;;;;;54.75;50.95;;;;;;;9.75;52.58;99011.56;4467669;32;33631;-84
2020/12/12 10:50:26;;;;;;;54.78;50.90;;;;;;;8.94;55.41;99019.72;4467554;32;33956;-84
2020/12/12 10:52:53;;;;;;;54.05;50.38;;;;;;;9.55;53.80;99012.31;4454575;32;34576;-84
2020/12/12 10:55:20;;;;;;;54.85;51.03;;;;;;;9.80;53.47;99012.22;4467846;32;35037;-83
2020/12/12 10:57:48;;;;;;;55.17;51.35;;;;;;;9.71;53.36;99010.81;4468821;32;34285;-84
2020/12/12 11:00:23;;;;;;;55.22;51.25;;;;;;;10.44;51.56;99018.34;4429220;32;32510;-83
2020/12/12 11:02:51;;;;;;;56.00;52.03;;;;;;;10.64;50.89;99018.34;4467718;32;33817;-84
2020/12/12 11:05:19;;;;;;;55.12;51.22;;;;;;;10.08;52.55;99011.94;4467692;32;32730;-82
2020/12/12 11:07:52;;;;;;;54.63;50.83;;;;;;;10.24;51.73;99011.31;4443198;32;33626;-84
2020/12/12 11:10:21;;;;;;;54.90;50.95;;;;;;;10.52;50.67;99000.63;4454754;32;32882;-83
2020/12/12 11:12:51;;;;;;;54.90;51.08;;;;;;;10.37;51.31;99004.75;4443819;32;34077;-84
2020/12/12 11:15:18;;;;;;;55.38;51.50;;;;;;;10.91;49.76;98998.97;4445179;32;33679;-84
2020/12/12 11:17:46;;;;;;;54.22;50.22;;;;;;;9.79;52.95;99008.75;4454646;32;33029;-84
2020/12/12 11:20:15;;;;;;;56.83;52.95;;;;;;;9.35;54.66;99006.97;4454744;32;32839;-84
2020/12/12 11:22:43;;;;;;;55.12;51.33;;;;;;;9.39;54.56;99004.22;4467766;32;33330;-84
2020/12/12 11:25:10;;;;;;;54.92;50.97;;;;;;;10.07;52.47;99005.03;4472212;32;34837;-83
2020/12/12 11:27:39;;;;;;;54.90;51.10;;;;;;;10.12;52.23;99005.72;4472015;32;34664;-83
2020/12/12 11:30:10;;;;;;;55.35;51.25;;;;;;;10.12;52.45;99007.47;4468896;32;33279;-85
2020/12/12 11:32:37;;;;;;;54.92;51.28;;;;;;;10.42;51.65;98999.31;4469790;32;34242;-83
2020/12/12 11:35:16;;;;;;;53.60;49.88;;;;;;;10.47;51.47;98997.38;4467654;32;34182;-84